sensor_id;sensor_type;location;lat;lon;timestamp;pressure;altitude;pressure_sealevel;temperature;humidity
48624;BME280;34422;45.802;16.114;2023-06-01T00:00:14;65572.09;;;16.81;100.00
48624;BME280;34422;45.802;16.114;2023-06-01T00:02:41;65574.25;;;16.80;100.00
48624;BME280;34422;45.802;16.114;2023-06-01T00:05:08;65568.84;;;16.73;100.00
48624;BME280;34422;45.802;16.114;2023-06-01T00:07:35;65564.50;;;16.68;100.00
48624;BME280;34422;45.802;16.114;2023-06-01T00:10:02;65562.34;;;16.72;100.00
48624;BME280;34422;45.802;16.114;2023-06-01T00:12:29;65568.84;;;16.78;100.00
48624;BME280;34422;45.802;16.114;2023-06-01T00:14:56;65569.38;;;16.76;100.00
48624;BME280;34422;45.802;16.114;2023-06-01T00:17:24;65562.91;;;16.67;100.00
48624;BME280;34422;45.802;16.114;2023-06-01T00:19:51;65563.41;;;16.67;100.00
48624;BME280;34422;45.802;16.114;2023-06-01T00:22:19;65561.78;;;16.68;100.00
48624;BME280;34422;45.802;16.114;2023-06-01T00:24:46;65559.66;;;16.66;100.00
48624;BME280;34422;45.802;16.114;2023-06-01T00:27:13;65569.38;;;16.73;100.00
48624;BME280;34422;45.802;16.114;2023-06-01T00:29:40;65571.00;;;16.75;100.00
48624;BME280;34422;45.802;16.114;2023-06-01T00:32:07;65581.84;;;16.80;100.00
48624;BME280;34422;45.802;16.114;2023-06-01T00:34:33;65568.28;;;16.75;100.00
48624;BME280;34422;45.802;16.114;2023-06-01T00:37:00;65563.41;;;16.67;100.00
48624;BME280;34422;45.802;16.114;2023-06-01T00:39:27;65566.13;;;16.73;100.00
48624;BME280;34422;45.802;16.114;2023-06-01T00:41:54;65567.75;;;16.72;100.00
48624;BME280;34422;45.802;16.114;2023-06-01T00:44:21;65570.47;;;16.74;100.00
48624;BME280;34422;45.802;16.114;2023-06-01T00:46:49;65567.75;;;16.72;100.00
48624;BME280;34422;45.802;16.114;2023-06-01T00:49:17;65550.97;;;16.58;100.00
48624;BME280;34422;45.802;16.114;2023-06-01T00:51:44;65540.69;;;16.46;100.00
48624;BME280;34422;45.802;16.114;2023-06-01T00:54:11;65528.78;;;16.38;100.00
48624;BME280;34422;45.802;16.114;2023-06-01T00:56:38;65533.66;;;16.42;100.00
48624;BME280;34422;45.802;16.114;2023-06-01T00:59:05;65535.81;;;16.44;100.00
48624;BME280;34422;45.802;16.114;2023-06-01T01:01:32;65545.03;;;16.50;100.00
48624;BME280;34422;45.802;16.114;2023-06-01T01:04:00;65554.75;;;16.59;100.00
48624;BME280;34422;45.802;16.114;2023-06-01T01:12:09;65542.31;;;16.50;100.00
48624;BME280;34422;45.802;16.114;2023-06-01T01:14:40;65545.56;;;16.48;100.00
48624;BME280;34422;45.802;16.114;2023-06-01T01:17:28;65526.63;;;16.33;100.00
48624;BME280;34422;45.802;16.114;2023-06-01T01:20:03;65526.06;;;16.35;100.00
48624;BME280;34422;45.802;16.114;2023-06-01T01:30:34;65532.03;;;16.38;100.00
48624;BME280;34422;45.802;16.114;2023-06-01T01:33:03;65535.81;;;16.39;100.00
48624;BME280;34422;45.802;16.114;2023-06-01T01:35:31;65536.38;;;16.40;100.00
48624;BME280;34422;45.802;16.114;2023-06-01T01:37:59;65537.44;;;16.38;100.00
48624;BME280;34422;45.802;16.114;2023-06-01T01:40:26;65531.50;;;16.38;100.00
48624;BME280;34422;45.802;16.114;2023-06-01T01:42:53;65528.78;;;16.30;100.00
48624;BME280;34422;45.802;16.114;2023-06-01T01:45:20;65528.78;;;16.35;100.00
48624;BME280;34422;45.802;16.114;2023-06-01T01:48:07;65530.41;;;16.37;100.00
48624;BME280;34422;45.802;16.114;2023-06-01T01:50:41;65532.03;;;16.38;100.00
48624;BME280;34422;45.802;16.114;2023-06-01T01:53:09;65533.66;;;16.40;100.00
48624;BME280;34422;45.802;16.114;2023-06-01T01:55:37;65530.41;;;16.37;100.00
48624;BME280;34422;45.802;16.114;2023-06-01T01:58:04;65526.63;;;16.33;100.00
48624;BME280;34422;45.802;16.114;2023-06-01T02:00:31;65526.06;;;16.27;100.00
48624;BME280;34422;45.802;16.114;2023-06-01T02:02:59;65514.19;;;16.24;100.00
48624;BME280;34422;45.802;16.114;2023-06-01T02:05:26;65518.50;;;16.28;100.00
48624;BME280;34422;45.802;16.114;2023-06-01T02:07:53;65514.72;;;16.22;100.00
48624;BME280;34422;45.802;16.114;2023-06-01T02:10:21;65507.69;;;16.15;100.00
48624;BME280;34422;45.802;16.114;2023-06-01T02:12:48;65508.22;;;16.16;100.00
48624;BME280;34422;45.802;16.114;2023-06-01T02:15:14;65495.25;;;16.04;100.00
48624;BME280;34422;45.802;16.114;2023-06-01T02:17:41;65473.63;;;15.88;100.00
48624;BME280;34422;45.802;16.114;2023-06-01T02:20:10;65470.38;;;15.80;100.00
48624;BME280;34422;45.802;16.114;2023-06-01T02:22:36;65459.56;;;15.75;100.00
48624;BME280;34422;45.802;16.114;2023-06-01T02:25:03;65453.06;;;15.59;100.00
48624;BME280;34422;45.802;16.114;2023-06-01T02:27:31;65444.44;;;15.56;100.00
48624;BME280;34422;45.802;16.114;2023-06-01T02:29:58;65436.84;;;15.54;100.00
48624;BME280;34422;45.802;16.114;2023-06-01T02:32:25;65437.91;;;15.50;100.00
48624;BME280;34422;45.802;16.114;2023-06-01T02:34:53;65444.94;;;15.54;100.00
48624;BME280;34422;45.802;16.114;2023-06-01T02:37:19;65448.75;;;15.55;100.00
48624;BME280;34422;45.802;16.114;2023-06-01T02:39:46;65441.69;;;15.48;100.00
48624;BME280;34422;45.802;16.114;2023-06-01T02:42:14;65439.53;;;15.49;100.00
48624;BME280;34422;45.802;16.114;2023-06-01T02:44:41;65430.88;;;15.48;100.00
48624;BME280;34422;45.802;16.114;2023-06-01T02:47:07;65434.66;;;15.47;100.00
48624;BME280;34422;45.802;16.114;2023-06-01T02:49:34;65434.13;;;15.46;100.00
48624;BME280;34422;45.802;16.114;2023-06-01T02:52:01;65433.59;;;15.46;100.00
48624;BME280;34422;45.802;16.114;2023-06-01T02:54:28;65433.59;;;15.43;100.00
48624;BME280;34422;45.802;16.114;2023-06-01T02:56:54;65428.19;;;15.41;100.00
48624;BME280;34422;45.802;16.114;2023-06-01T02:59:21;65425.50;;;15.43;100.00
48624;BME280;34422;45.802;16.114;2023-06-01T03:01:48;65427.09;;;15.45;100.00
48624;BME280;34422;45.802;16.114;2023-06-01T03:04:15;65439.53;;;15.46;100.00
48624;BME280;34422;45.802;16.114;2023-06-01T03:06:42;65434.66;;;15.47;100.00
48624;BME280;34422;45.802;16.114;2023-06-01T03:09:09;65434.13;;;15.46;100.00
48624;BME280;34422;45.802;16.114;2023-06-01T03:11:45;65429.81;;;15.45;100.00
48624;BME280;34422;45.802;16.114;2023-06-01T03:14:12;65436.28;;;15.46;100.00
48624;BME280;34422;45.802;16.114;2023-06-01T03:16:38;65434.13;;;15.46;100.00
48624;BME280;34422;45.802;16.114;2023-06-01T03:19:06;65453.06;;;15.64;100.00
48624;BME280;34422;45.802;16.114;2023-06-01T03:21:32;65462.25;;;15.73;100.00
48624;BME280;34422;45.802;16.114;2023-06-01T03:24:00;65427.66;;;15.43;100.00
48624;BME280;34422;45.802;16.114;2023-06-01T03:26:27;65428.19;;;15.41;100.00
48624;BME280;34422;45.802;16.114;2023-06-01T03:28:54;65419.53;;;15.35;100.00
48624;BME280;34422;45.802;16.114;2023-06-01T03:31:21;65422.25;;;15.38;100.00
48624;BME280;34422;45.802;16.114;2023-06-01T03:33:48;65424.94;;;15.38;100.00
48624;BME280;34422;45.802;16.114;2023-06-01T03:36:15;65430.34;;;15.38;100.00
48624;BME280;34422;45.802;16.114;2023-06-01T03:38:42;65424.41;;;15.40;100.00
48624;BME280;34422;45.802;16.114;2023-06-01T03:41:09;65430.34;;;15.45;100.00
48624;BME280;34422;45.802;16.114;2023-06-01T03:43:36;65443.91;;;15.55;100.00
48624;BME280;34422;45.802;16.114;2023-06-01T03:46:02;65441.72;;;15.56;100.00
48624;BME280;34422;45.802;16.114;2023-06-01T03:48:29;65447.66;;;15.61;100.00
48624;BME280;34422;45.802;16.114;2023-06-01T03:50:56;65461.72;;;15.70;100.00
48624;BME280;34422;45.802;16.114;2023-06-01T03:53:23;65460.63;;;15.76;100.00
48624;BME280;34422;45.802;16.114;2023-06-01T03:55:51;65464.41;;;15.75;100.00
48624;BME280;34422;45.802;16.114;2023-06-01T03:58:18;65470.38;;;15.80;100.00
48624;BME280;34422;45.802;16.114;2023-06-01T04:00:50;65468.22;;;15.78;100.00
48624;BME280;34422;45.802;16.114;2023-06-01T04:03:17;65480.66;;;15.87;100.00
48624;BME280;34422;45.802;16.114;2023-06-01T04:05:47;65475.78;;;15.85;100.00
48624;BME280;34422;45.802;16.114;2023-06-01T04:08:16;65481.72;;;15.86;100.00
48624;BME280;34422;45.802;16.114;2023-06-01T04:10:46;65481.72;;;15.91;100.00
48624;BME280;34422;45.802;16.114;2023-06-01T04:13:13;65487.69;;;15.96;100.00
48624;BME280;34422;45.802;16.114;2023-06-01T04:15:40;65494.69;;;16.00;100.00
48624;BME280;34422;45.802;16.114;2023-06-01T04:18:07;65508.75;;;16.16;100.00
48624;BME280;34422;45.802;16.114;2023-06-01T04:20:33;65502.84;;;16.11;100.00
48624;BME280;34422;45.802;16.114;2023-06-01T04:23:01;65502.84;;;16.11;100.00
48624;BME280;34422;45.802;16.114;2023-06-01T04:25:28;65492.03;;;15.98;100.00
48624;BME280;34422;45.802;16.114;2023-06-01T04:27:56;65481.19;;;15.90;100.00
48624;BME280;34422;45.802;16.114;2023-06-01T04:30:23;65496.31;;;15.99;100.00
48624;BME280;34422;45.802;16.114;2023-06-01T04:32:50;65502.84;;;16.11;100.00
48624;BME280;34422;45.802;16.114;2023-06-01T04:35:17;65460.66;;;15.71;100.00
48624;BME280;34422;45.802;16.114;2023-06-01T04:37:44;65458.50;;;15.67;100.00
48624;BME280;34422;45.802;16.114;2023-06-01T04:40:11;65470.91;;;15.81;100.00
48624;BME280;34422;45.802;16.114;2023-06-01T04:42:41;65442.78;;;15.52;100.00
48624;BME280;34422;45.802;16.114;2023-06-01T04:45:09;65437.91;;;15.50;100.00
48624;BME280;34422;45.802;16.114;2023-06-01T04:47:37;65435.75;;;15.50;100.00
48624;BME280;34422;45.802;16.114;2023-06-01T04:50:08;65455.22;;;15.61;100.00
48624;BME280;34422;45.802;16.114;2023-06-01T04:52:37;65473.09;;;15.83;100.00
48624;BME280;34422;45.802;16.114;2023-06-01T04:55:04;65461.19;;;15.67;100.00
48624;BME280;34422;45.802;16.114;2023-06-01T04:57:34;65465.50;;;15.76;100.00
48624;BME280;34422;45.802;16.114;2023-06-01T05:00:06;65464.44;;;15.77;100.00
48624;BME280;34422;45.802;16.114;2023-06-01T05:02:40;65464.97;;;15.75;100.00
48624;BME280;34422;45.802;16.114;2023-06-01T05:05:08;65495.25;;;16.04;100.00
48624;BME280;34422;45.802;16.114;2023-06-01T05:07:39;65505.53;;;16.16;100.00
48624;BME280;34422;45.802;16.114;2023-06-01T05:10:06;65516.88;;;16.24;100.00
48624;BME280;34422;45.802;16.114;2023-06-01T05:12:34;65522.28;;;16.29;100.00
48624;BME280;34422;45.802;16.114;2023-06-01T05:15:03;65529.31;;;16.35;100.00
48624;BME280;34422;45.802;16.114;2023-06-01T05:17:30;65544.47;;;16.50;100.00
48624;BME280;34422;45.802;16.114;2023-06-01T05:19:57;65530.41;;;16.39;100.00
48624;BME280;34422;45.802;16.114;2023-06-01T05:22:24;65537.44;;;16.48;100.00
48624;BME280;34422;45.802;16.114;2023-06-01T05:24:52;65555.84;;;16.60;100.00
48624;BME280;34422;45.802;16.114;2023-06-01T05:27:18;65552.59;;;16.57;100.00
48624;BME280;34422;45.802;16.114;2023-06-01T05:29:45;65571.53;;;16.75;100.00
48624;BME280;34422;45.802;16.114;2023-06-01T05:32:12;65581.28;;;16.87;100.00
48624;BME280;34422;45.802;16.114;2023-06-01T05:34:39;65585.06;;;16.93;100.00
48624;BME280;34422;45.802;16.114;2023-06-01T05:37:06;65605.09;;;17.09;100.00
48624;BME280;34422;45.802;16.114;2023-06-01T05:39:32;65591.56;;;16.96;100.00
48624;BME280;34422;45.802;16.114;2023-06-01T05:41:59;65574.25;;;16.78;100.00
48624;BME280;34422;45.802;16.114;2023-06-01T05:44:26;65588.31;;;16.91;100.00
48624;BME280;34422;45.802;16.114;2023-06-01T05:46:53;65575.34;;;16.79;100.00
48624;BME280;34422;45.802;16.114;2023-06-01T05:49:19;65603.47;;;17.02;100.00
48624;BME280;34422;45.802;16.114;2023-06-01T05:51:46;65629.47;;;17.29;100.00
48624;BME280;34422;45.802;16.114;2023-06-01T05:54:13;65621.34;;;17.22;100.00
48624;BME280;34422;45.802;16.114;2023-06-01T05:56:40;65635.41;;;17.37;100.00
48624;BME280;34422;45.802;16.114;2023-06-01T05:59:07;65633.25;;;17.33;100.00
48624;BME280;34422;45.802;16.114;2023-06-01T06:01:34;65660.88;;;17.59;100.00
48624;BME280;34422;45.802;16.114;2023-06-01T06:04:02;65671.72;;;17.69;100.00
48624;BME280;34422;45.802;16.114;2023-06-01T06:06:32;65664.66;;;17.62;100.00
48624;BME280;34422;45.802;16.114;2023-06-01T06:08:59;65709.09;;;18.01;100.00
48624;BME280;34422;45.802;16.114;2023-06-01T06:11:26;65744.28;;;18.42;100.00
48624;BME280;34422;45.802;16.114;2023-06-01T06:13:53;65756.75;;;18.48;100.00
48624;BME280;34422;45.802;16.114;2023-06-01T06:16:20;65812.03;;;19.03;100.00
48624;BME280;34422;45.802;16.114;2023-06-01T06:18:47;65809.34;;;18.98;100.00
48624;BME280;34422;45.802;16.114;2023-06-01T06:21:14;65820.72;;;19.08;100.00
48624;BME280;34422;45.802;16.114;2023-06-01T06:23:40;65825.03;;;19.15;100.00
48624;BME280;34422;45.802;16.114;2023-06-01T06:26:07;65806.63;;;18.98;100.00
48624;BME280;34422;45.802;16.114;2023-06-01T06:28:34;65828.31;;;19.18;100.00
48624;BME280;34422;45.802;16.114;2023-06-01T06:31:01;65861.94;;;19.49;100.00
48624;BME280;34422;45.802;16.114;2023-06-01T06:33:28;65867.91;;;19.58;100.00
48624;BME280;34422;45.802;16.114;2023-06-01T06:35:55;65920.00;;;19.96;100.00
48624;BME280;34422;45.802;16.114;2023-06-01T06:38:23;65923.25;;;20.04;100.00
48624;BME280;34422;45.802;16.114;2023-06-01T06:40:50;65849.44;;;19.40;100.00
48624;BME280;34422;45.802;16.114;2023-06-01T06:43:17;65869.56;;;19.51;100.00
48624;BME280;34422;45.802;16.114;2023-06-01T06:45:44;65901.00;;;19.86;100.00
48624;BME280;34422;45.802;16.114;2023-06-01T06:48:11;65870.63;;;19.58;100.00
48624;BME280;34422;45.802;16.114;2023-06-01T06:50:38;65910.19;;;19.97;100.00
48624;BME280;34422;45.802;16.114;2023-06-01T06:53:08;65993.81;;;20.68;100.00
48624;BME280;34422;45.802;16.114;2023-06-01T06:55:35;66077.41;;;21.53;100.00
48624;BME280;34422;45.802;16.114;2023-06-01T06:58:02;66054.66;;;21.27;100.00
48624;BME280;34422;45.802;16.114;2023-06-01T07:00:29;66056.81;;;21.32;100.00
48624;BME280;34422;45.802;16.114;2023-06-01T07:02:56;66156.78;;;22.25;100.00
48624;BME280;34422;45.802;16.114;2023-06-01T07:05:25;66223.06;;;22.94;100.00
48624;BME280;34422;45.802;16.114;2023-06-01T07:07:52;66294.34;;;23.56;100.00
48624;BME280;34422;45.802;16.114;2023-06-01T07:10:19;66289.44;;;23.51;100.00
48624;BME280;34422;45.802;16.114;2023-06-01T07:12:46;66233.94;;;22.99;100.00
48624;BME280;34422;45.802;16.114;2023-06-01T07:15:14;66292.72;;;23.54;100.00
48624;BME280;34422;45.802;16.114;2023-06-01T07:17:41;66193.72;;;22.62;100.00
48624;BME280;34422;45.802;16.114;2023-06-01T07:20:08;66305.81;;;23.61;100.00
48624;BME280;34422;45.802;16.114;2023-06-01T07:22:38;66332.44;;;23.89;100.00
48624;BME280;34422;45.802;16.114;2023-06-01T07:25:06;66381.97;;;24.37;100.00
48624;BME280;34422;45.802;16.114;2023-06-01T07:27:34;66221.47;;;22.85;100.00
48624;BME280;34422;45.802;16.114;2023-06-01T07:30:03;66379.78;;;24.35;100.00
48624;BME280;34422;45.802;16.114;2023-06-01T07:32:31;66417.91;;;24.71;100.00
48624;BME280;34422;45.802;16.114;2023-06-01T07:34:58;66240.50;;;23.06;100.00
48624;BME280;34422;45.802;16.114;2023-06-01T07:37:25;66349.88;;;24.02;100.00
48624;BME280;34422;45.802;16.114;2023-06-01T07:39:54;66357.47;;;24.12;100.00
48624;BME280;34422;45.802;16.114;2023-06-01T07:42:21;66483.25;;;25.32;100.00
48624;BME280;34422;45.802;16.114;2023-06-01T07:44:48;66431.44;;;24.89;100.00
48624;BME280;34422;45.802;16.114;2023-06-01T07:47:15;66550.81;;;25.95;97.94
48624;BME280;34422;45.802;16.114;2023-06-01T07:49:42;66572.63;;;26.15;90.25
48624;BME280;34422;45.802;16.114;2023-06-01T07:52:09;66483.31;;;25.27;100.00
48624;BME280;34422;45.802;16.114;2023-06-01T07:54:36;66506.63;;;25.59;100.00
48624;BME280;34422;45.802;16.114;2023-06-01T07:57:04;66701.84;;;27.35;76.88
48624;BME280;34422;45.802;16.114;2023-06-01T07:59:31;66514.81;;;25.66;89.18
48624;BME280;34422;45.802;16.114;2023-06-01T08:01:58;66742.81;;;27.73;76.73
48624;BME280;34422;45.802;16.114;2023-06-01T08:04:27;66635.81;;;26.79;85.95
48624;BME280;34422;45.802;16.114;2023-06-01T08:06:53;66817.03;;;28.42;76.44
48624;BME280;34422;45.802;16.114;2023-06-01T08:09:22;66624.97;;;26.64;91.96
48624;BME280;34422;45.802;16.114;2023-06-01T08:11:52;66720.94;;;27.53;77.05
48624;BME280;34422;45.802;16.114;2023-06-01T08:14:20;66564.44;;;26.07;85.99
48624;BME280;34422;45.802;16.114;2023-06-01T08:16:46;66592.84;;;26.29;85.15
48624;BME280;34422;45.802;16.114;2023-06-01T08:19:14;66597.69;;;26.38;83.64
48624;BME280;34422;45.802;16.114;2023-06-01T08:21:41;66620.06;;;26.59;80.28
48624;BME280;34422;45.802;16.114;2023-06-01T08:24:08;66739.53;;;27.70;69.62
48624;BME280;34422;45.802;16.114;2023-06-01T08:26:35;66665.31;;;27.01;76.33
48624;BME280;34422;45.802;16.114;2023-06-01T08:29:02;66680.59;;;27.15;80.26
48624;BME280;34422;45.802;16.114;2023-06-01T08:31:30;66806.06;;;28.37;73.87
48624;BME280;34422;45.802;16.114;2023-06-01T08:33:56;66825.25;;;28.47;64.17
48624;BME280;34422;45.802;16.114;2023-06-01T08:36:23;66826.28;;;28.53;62.26
48624;BME280;34422;45.802;16.114;2023-06-01T08:38:50;66864.53;;;28.86;64.08
48624;BME280;34422;45.802;16.114;2023-06-01T08:41:24;66747.69;;;27.78;65.46
48624;BME280;34422;45.802;16.114;2023-06-01T08:44:02;66654.41;;;26.91;73.37
48624;BME280;34422;45.802;16.114;2023-06-01T08:46:32;66700.81;;;27.32;76.28
48624;BME280;34422;45.802;16.114;2023-06-01T08:49:01;66672.38;;;27.10;81.68
48624;BME280;34422;45.802;16.114;2023-06-01T08:51:28;66765.13;;;27.97;72.37
48624;BME280;34422;45.802;16.114;2023-06-01T08:54:00;66759.16;;;27.88;78.76
48624;BME280;34422;45.802;16.114;2023-06-01T08:56:29;66843.28;;;28.61;66.24
48624;BME280;34422;45.802;16.114;2023-06-01T08:58:56;66902.69;;;29.27;63.61
48624;BME280;34422;45.802;16.114;2023-06-01T09:01:29;66919.19;;;29.34;58.22
48624;BME280;34422;45.802;16.114;2023-06-01T09:03:56;66794.09;;;28.21;70.65
48624;BME280;34422;45.802;16.114;2023-06-01T09:06:22;66798.47;;;28.25;68.33
48624;BME280;34422;45.802;16.114;2023-06-01T09:08:49;66832.25;;;28.61;69.54
48624;BME280;34422;45.802;16.114;2023-06-01T09:11:16;66844.34;;;28.68;68.57
48624;BME280;34422;45.802;16.114;2023-06-01T09:13:43;66695.88;;;27.30;67.53
48624;BME280;34422;45.802;16.114;2023-06-01T09:16:10;66882.56;;;29.03;65.33
48624;BME280;34422;45.802;16.114;2023-06-01T09:18:55;66938.28;;;29.55;56.97
48624;BME280;34422;45.802;16.114;2023-06-01T09:21:22;66977.66;;;29.89;53.50
48624;BME280;34422;45.802;16.114;2023-06-01T09:23:49;66874.94;;;28.96;57.15
48624;BME280;34422;45.802;16.114;2023-06-01T09:26:25;66908.72;;;29.32;56.62
48624;BME280;34422;45.802;16.114;2023-06-01T09:28:56;66858.59;;;28.76;58.96
48624;BME280;34422;45.802;16.114;2023-06-01T09:31:37;66795.72;;;28.25;59.46
48624;BME280;34422;45.802;16.114;2023-06-01T09:34:04;66806.66;;;28.33;58.21
48624;BME280;34422;45.802;16.114;2023-06-01T09:36:32;66610.78;;;26.50;71.37
48624;BME280;34422;45.802;16.114;2023-06-01T09:39:08;66608.59;;;26.48;79.36
48624;BME280;34422;45.802;16.114;2023-06-01T09:41:47;66698.66;;;27.27;65.78
48624;BME280;34422;45.802;16.114;2023-06-01T09:44:22;66654.41;;;26.91;66.05
48624;BME280;34422;45.802;16.114;2023-06-01T09:46:51;66693.69;;;27.28;67.66
48624;BME280;34422;45.802;16.114;2023-06-01T09:49:24;66772.19;;;28.06;65.17
48624;BME280;34422;45.802;16.114;2023-06-01T09:52:13;66731.31;;;27.65;65.29
48624;BME280;34422;45.802;16.114;2023-06-01T09:54:43;66726.97;;;27.58;69.67
48624;BME280;34422;45.802;16.114;2023-06-01T09:57:11;66743.31;;;27.76;63.04
48624;BME280;34422;45.802;16.114;2023-06-01T09:59:45;66724.25;;;27.53;64.98
48624;BME280;34422;45.802;16.114;2023-06-01T10:02:23;66647.91;;;26.80;64.01
48624;BME280;34422;45.802;16.114;2023-06-01T10:04:52;66708.38;;;27.44;65.26
48624;BME280;34422;45.802;16.114;2023-06-01T10:07:22;66722.03;;;27.54;63.26
48624;BME280;34422;45.802;16.114;2023-06-01T10:09:55;66686.09;;;27.15;70.83
48624;BME280;34422;45.802;16.114;2023-06-01T10:12:22;66781.00;;;28.09;64.74
48624;BME280;34422;45.802;16.114;2023-06-01T10:14:50;66738.38;;;27.74;68.17
48624;BME280;34422;45.802;16.114;2023-06-01T10:17:20;66831.78;;;28.56;60.47
48624;BME280;34422;45.802;16.114;2023-06-01T10:19:48;66813.75;;;28.39;59.53
48624;BME280;34422;45.802;16.114;2023-06-01T10:22:16;66837.78;;;28.61;57.67
48624;BME280;34422;45.802;16.114;2023-06-01T10:24:43;66746.69;;;27.72;59.24
48624;BME280;34422;45.802;16.114;2023-06-01T10:27:20;66731.28;;;27.68;60.94
48624;BME280;34422;45.802;16.114;2023-06-01T10:29:49;66718.22;;;27.50;63.23
48624;BME280;34422;45.802;16.114;2023-06-01T10:35:04;66773.84;;;28.05;62.24
48624;BME280;34422;45.802;16.114;2023-06-01T10:37:31;66744.97;;;27.75;57.81
48624;BME280;34422;45.802;16.114;2023-06-01T10:40:21;66805.53;;;28.34;53.82
48624;BME280;34422;45.802;16.114;2023-06-01T10:42:52;66778.28;;;28.04;56.61
48624;BME280;34422;45.802;16.114;2023-06-01T10:45:50;66822.47;;;28.47;52.26
48624;BME280;34422;45.802;16.114;2023-06-01T10:48:53;66802.84;;;28.29;51.61
48624;BME280;34422;45.802;16.114;2023-06-01T10:51:22;66798.47;;;28.25;57.82
48624;BME280;34422;45.802;16.114;2023-06-01T10:53:51;66827.44;;;28.49;54.95
48624;BME280;34422;45.802;16.114;2023-06-01T10:56:37;66884.75;;;29.05;51.94
48624;BME280;34422;45.802;16.114;2023-06-01T10:59:25;66887.47;;;29.08;51.89
48624;BME280;34422;45.802;16.114;2023-06-01T11:02:16;66845.34;;;28.74;52.71
48624;BME280;34422;45.802;16.114;2023-06-01T11:04:43;66795.75;;;28.22;51.72
48624;BME280;34422;45.802;16.114;2023-06-01T11:07:35;66818.13;;;28.43;51.89
48624;BME280;34422;45.802;16.114;2023-06-01T11:10:07;66738.38;;;27.74;51.88
48624;BME280;34422;45.802;16.114;2023-06-01T11:13:13;66753.22;;;27.78;56.19
48624;BME280;34422;45.802;16.114;2023-06-01T11:19:18;66871.66;;;28.93;47.85
48624;BME280;34422;45.802;16.114;2023-06-01T11:21:59;66837.19;;;28.63;51.78
48624;BME280;34422;45.802;16.114;2023-06-01T11:24:35;66844.91;;;28.65;52.94
48624;BME280;34422;45.802;16.114;2023-06-01T11:27:08;66794.09;;;28.21;55.07
48624;BME280;34422;45.802;16.114;2023-06-01T11:29:49;66640.13;;;26.85;57.61
48624;BME280;34422;45.802;16.114;2023-06-01T11:32:22;66772.81;;;28.01;54.34
48624;BME280;34422;45.802;16.114;2023-06-01T11:34:52;66793.53;;;28.23;50.93
48624;BME280;34422;45.802;16.114;2023-06-01T11:37:21;66776.06;;;28.04;54.16
48624;BME280;34422;45.802;16.114;2023-06-01T11:39:47;66688.78;;;27.20;57.16
48624;BME280;34422;45.802;16.114;2023-06-01T11:42:17;66706.78;;;27.40;58.73
48624;BME280;34422;45.802;16.114;2023-06-01T11:44:56;66765.66;;;28.00;55.27
48624;BME280;34422;45.802;16.114;2023-06-01T11:47:30;66782.63;;;28.10;51.62
48624;BME280;34422;45.802;16.114;2023-06-01T11:49:57;66766.81;;;27.95;50.51
48624;BME280;34422;45.802;16.114;2023-06-01T11:52:29;66766.25;;;27.95;52.43
48624;BME280;34422;45.802;16.114;2023-06-01T11:55:02;66748.78;;;27.79;50.42
48624;BME280;34422;45.802;16.114;2023-06-01T11:57:30;66801.75;;;28.28;49.66
48624;BME280;34422;45.802;16.114;2023-06-01T12:00:02;66777.78;;;28.01;51.03
48624;BME280;34422;45.802;16.114;2023-06-01T12:02:31;66734.59;;;27.68;54.21
48624;BME280;34422;45.802;16.114;2023-06-01T12:05:04;66742.25;;;27.73;53.43
48624;BME280;34422;45.802;16.114;2023-06-01T12:07:49;66764.63;;;27.93;53.88
48624;BME280;34422;45.802;16.114;2023-06-01T12:10:25;66789.69;;;28.22;51.70
48624;BME280;34422;45.802;16.114;2023-06-01T12:12:58;66730.22;;;27.64;50.93
48624;BME280;34422;45.802;16.114;2023-06-01T12:15:26;66711.69;;;27.44;52.71
48624;BME280;34422;45.802;16.114;2023-06-01T12:18:00;66736.81;;;27.65;55.14
48624;BME280;34422;45.802;16.114;2023-06-01T12:20:31;66734.06;;;27.65;53.28
48624;BME280;34422;45.802;16.114;2023-06-01T12:22:59;66742.22;;;27.75;52.71
48624;BME280;34422;45.802;16.114;2023-06-01T12:25:29;66747.16;;;27.77;49.69
48624;BME280;34422;45.802;16.114;2023-06-01T12:30:27;66680.03;;;27.17;53.95
48624;BME280;34422;45.802;16.114;2023-06-01T12:32:54;66727.56;;;27.54;52.17
48624;BME280;34422;45.802;16.114;2023-06-01T12:35:21;66749.88;;;27.82;52.68
48624;BME280;34422;45.802;16.114;2023-06-01T12:38:03;66758.59;;;27.90;51.85
48624;BME280;34422;45.802;16.114;2023-06-01T12:40:37;66718.16;;;27.55;51.86
48624;BME280;34422;45.802;16.114;2023-06-01T12:43:05;66734.59;;;27.68;54.46
48624;BME280;34422;45.802;16.114;2023-06-01T12:45:36;66711.13;;;27.44;54.46
48624;BME280;34422;45.802;16.114;2023-06-01T12:48:04;66718.75;;;27.53;52.54
48624;BME280;34422;45.802;16.114;2023-06-01T12:50:47;66730.22;;;27.64;50.91
48624;BME280;34422;45.802;16.114;2023-06-01T12:53:18;66736.19;;;27.72;51.03
48624;BME280;34422;45.802;16.114;2023-06-01T12:55:46;66733.53;;;27.62;55.61
48624;BME280;34422;45.802;16.114;2023-06-01T12:58:14;66775.59;;;27.99;52.70
48624;BME280;34422;45.802;16.114;2023-06-01T13:00:41;66774.44;;;28.03;55.53
48624;BME280;34422;45.802;16.114;2023-06-01T13:03:13;66775.53;;;28.04;55.17
48624;BME280;34422;45.802;16.114;2023-06-01T13:05:45;66799.56;;;28.26;51.16
48624;BME280;34422;45.802;16.114;2023-06-01T13:08:17;66820.88;;;28.43;51.01
48624;BME280;34422;45.802;16.114;2023-06-01T13:10:49;66841.06;;;28.64;51.74
48624;BME280;34422;45.802;16.114;2023-06-01T13:13:19;66774.38;;;28.08;55.26
48624;BME280;34422;45.802;16.114;2023-06-01T13:15:49;66831.22;;;28.55;52.51